sensor_id;sensor_type;location;lat;lon;timestamp;pressure;altitude;pressure_sealevel;temperature;humidity
63399;BME280;49533;-34.520;150.798;2022-09-30T00:00:01;101553.03;;;15.30;71.29
63399;BME280;49533;-34.520;150.798;2022-09-30T00:02:28;101545.19;;;15.37;71.29
63399;BME280;49533;-34.520;150.798;2022-09-30T00:04:55;101545.31;;;15.32;71.41
63399;BME280;49533;-34.520;150.798;2022-09-30T00:07:22;101545.63;;;15.30;71.73
63399;BME280;49533;-34.520;150.798;2022-09-30T00:09:49;101541.44;;;15.33;72.14
63399;BME280;49533;-34.520;150.798;2022-09-30T00:12:16;101537.56;;;15.34;72.08
63399;BME280;49533;-34.520;150.798;2022-09-30T00:14:43;101544.06;;;15.38;71.85
63399;BME280;49533;-34.520;150.798;2022-09-30T00:17:11;101539.56;;;15.42;72.25
63399;BME280;49533;-34.520;150.798;2022-09-30T00:19:38;101523.59;;;15.44;72.50
63399;BME280;49533;-34.520;150.798;2022-09-30T00:22:05;101535.25;;;15.50;72.12
63399;BME280;49533;-34.520;150.798;2022-09-30T00:24:33;101533.00;;;15.52;72.08
63399;BME280;49533;-34.520;150.798;2022-09-30T00:27:00;101532.69;;;15.53;72.07
63399;BME280;49533;-34.520;150.798;2022-09-30T00:29:27;101531.56;;;15.54;72.13
63399;BME280;49533;-34.520;150.798;2022-09-30T00:31:54;101538.53;;;15.60;72.31
63399;BME280;49533;-34.520;150.798;2022-09-30T00:34:21;101531.09;;;15.61;72.01
63399;BME280;49533;-34.520;150.798;2022-09-30T00:36:50;101528.53;;;15.64;71.92
63399;BME280;49533;-34.520;150.798;2022-09-30T00:39:21;101512.72;;;15.61;71.92
63399;BME280;49533;-34.520;150.798;2022-09-30T00:41:54;101532.16;;;15.74;71.90
63399;BME280;49533;-34.520;150.798;2022-09-30T00:44:43;101535.69;;;15.74;71.67
63399;BME280;49533;-34.520;150.798;2022-09-30T00:47:34;101526.53;;;15.79;71.57
63399;BME280;49533;-34.520;150.798;2022-09-30T00:50:18;101524.28;;;15.81;71.34
63399;BME280;49533;-34.520;150.798;2022-09-30T00:52:53;101516.06;;;15.81;71.24
63399;BME280;49533;-34.520;150.798;2022-09-30T00:55:32;101514.13;;;15.81;71.34
63399;BME280;49533;-34.520;150.798;2022-09-30T00:58:03;101518.00;;;15.80;71.51
63399;BME280;49533;-34.520;150.798;2022-09-30T01:00:31;101517.03;;;15.85;71.18
63399;BME280;49533;-34.520;150.798;2022-09-30T01:02:58;101517.50;;;15.87;70.71
63399;BME280;49533;-34.520;150.798;2022-09-30T01:05:26;101522.84;;;15.92;69.36
63399;BME280;49533;-34.520;150.798;2022-09-30T01:07:56;101522.69;;;15.97;68.93
63399;BME280;49533;-34.520;150.798;2022-09-30T01:10:24;101530.75;;;15.94;69.20
63399;BME280;49533;-34.520;150.798;2022-09-30T01:12:51;101525.59;;;15.92;69.06
63399;BME280;49533;-34.520;150.798;2022-09-30T01:15:22;101528.66;;;15.91;68.52
63399;BME280;49533;-34.520;150.798;2022-09-30T01:18:10;101518.00;;;15.89;67.85
63399;BME280;49533;-34.520;150.798;2022-09-30T01:20:59;101519.63;;;15.90;66.75
63399;BME280;49533;-34.520;150.798;2022-09-30T01:23:57;101511.22;;;15.86;67.02
63399;BME280;49533;-34.520;150.798;2022-09-30T01:26:50;101507.03;;;15.89;67.55
63399;BME280;49533;-34.520;150.798;2022-09-30T01:29:47;101500.31;;;15.95;66.94
63399;BME280;49533;-34.520;150.798;2022-09-30T01:32:43;101500.16;;;16.00;66.79
63399;BME280;49533;-34.520;150.798;2022-09-30T01:35:26;101495.13;;;16.02;66.86
63399;BME280;49533;-34.520;150.798;2022-09-30T01:41:01;101500.47;;;16.07;67.47
63399;BME280;49533;-34.520;150.798;2022-09-30T01:43:52;101490.34;;;16.08;67.07
63399;BME280;49533;-34.520;150.798;2022-09-30T01:46:33;101499.19;;;16.14;66.86
63399;BME280;49533;-34.520;150.798;2022-09-30T01:49:16;101490.63;;;16.15;67.18
63399;BME280;49533;-34.520;150.798;2022-09-30T01:51:57;101488.56;;;16.21;67.32
63399;BME280;49533;-34.520;150.798;2022-09-30T01:54:33;101488.88;;;16.28;67.39
63399;BME280;49533;-34.520;150.798;2022-09-30T01:57:11;101485.50;;;16.31;67.30
63399;BME280;49533;-34.520;150.798;2022-09-30T01:59:52;101482.28;;;16.29;67.21
63399;BME280;49533;-34.520;150.798;2022-09-30T02:02:24;101500.31;;;16.30;67.02
63399;BME280;49533;-34.520;150.798;2022-09-30T02:05:01;101474.03;;;16.29;66.87
63399;BME280;49533;-34.520;150.798;2022-09-30T02:07:36;101463.56;;;16.31;65.86
63399;BME280;49533;-34.520;150.798;2022-09-30T02:10:16;101471.31;;;16.29;65.70
63399;BME280;49533;-34.520;150.798;2022-09-30T02:12:51;101475.81;;;16.34;65.54
63399;BME280;49533;-34.520;150.798;2022-09-30T02:15:24;101472.09;;;16.38;65.54
63399;BME280;49533;-34.520;150.798;2022-09-30T02:17:59;101469.69;;;16.45;65.56
63399;BME280;49533;-34.520;150.798;2022-09-30T02:20:34;101469.19;;;16.43;65.74
63399;BME280;49533;-34.520;150.798;2022-09-30T02:23:05;101456.94;;;16.49;65.91
63399;BME280;49533;-34.520;150.798;2022-09-30T02:25:41;101461.63;;;16.49;66.21
63399;BME280;49533;-34.520;150.798;2022-09-30T02:28:15;101454.19;;;16.49;66.22
63399;BME280;49533;-34.520;150.798;2022-09-30T02:30:49;101456.94;;;16.49;66.29
63399;BME280;49533;-34.520;150.798;2022-09-30T02:33:26;101451.44;;;16.49;66.45
63399;BME280;49533;-34.520;150.798;2022-09-30T02:35:59;101452.09;;;16.46;66.11
63399;BME280;49533;-34.520;150.798;2022-09-30T02:38:34;101446.63;;;16.46;66.06
63399;BME280;49533;-34.520;150.798;2022-09-30T02:41:09;101445.47;;;16.47;65.65
63399;BME280;49533;-34.520;150.798;2022-09-30T02:43:38;101448.38;;;16.51;65.40
63399;BME280;49533;-34.520;150.798;2022-09-30T02:49:07;101450.00;;;16.43;65.53
63399;BME280;49533;-34.520;150.798;2022-09-30T02:51:44;101474.66;;;16.43;66.63
63399;BME280;49533;-34.520;150.798;2022-09-30T02:54:26;101464.53;;;16.44;66.87
63399;BME280;49533;-34.520;150.798;2022-09-30T02:57:07;101466.78;;;16.42;67.38
63399;BME280;49533;-34.520;150.798;2022-09-30T02:59:44;101460.97;;;16.43;67.36
63399;BME280;49533;-34.520;150.798;2022-09-30T03:02:12;101464.84;;;16.42;67.68
63399;BME280;49533;-34.520;150.798;2022-09-30T03:04:41;101448.06;;;16.44;67.72
63399;BME280;49533;-34.520;150.798;2022-09-30T03:07:09;101444.50;;;16.43;67.82
63399;BME280;49533;-34.520;150.798;2022-09-30T03:09:37;101448.38;;;16.42;67.55
63399;BME280;49533;-34.520;150.798;2022-09-30T03:12:19;101444.84;;;16.42;67.92
63399;BME280;49533;-34.520;150.798;2022-09-30T03:15:09;101447.25;;;16.43;67.97
63399;BME280;49533;-34.520;150.798;2022-09-30T03:18:03;101450.34;;;16.42;68.05
63399;BME280;49533;-34.520;150.798;2022-09-30T03:20:48;101435.16;;;16.44;68.10
63399;BME280;49533;-34.520;150.798;2022-09-30T03:23:37;101452.91;;;16.47;68.19
63399;BME280;49533;-34.520;150.798;2022-09-30T03:26:27;101450.81;;;16.44;68.16
63399;BME280;49533;-34.520;150.798;2022-09-30T03:29:17;101446.44;;;16.43;68.31
63399;BME280;49533;-34.520;150.798;2022-09-30T03:32:04;101444.84;;;16.42;68.25
63399;BME280;49533;-34.520;150.798;2022-09-30T03:34:58;101440.16;;;16.42;68.62
63399;BME280;49533;-34.520;150.798;2022-09-30T03:37:51;101433.88;;;16.42;68.31
63399;BME280;49533;-34.520;150.798;2022-09-30T03:40:36;101439.00;;;16.43;68.25
63399;BME280;49533;-34.520;150.798;2022-09-30T03:43:16;101436.44;;;16.47;68.58
63399;BME280;49533;-34.520;150.798;2022-09-30T03:45:53;101426.94;;;16.44;68.69
63399;BME280;49533;-34.520;150.798;2022-09-30T03:48:22;101437.25;;;16.47;68.80
63399;BME280;49533;-34.520;150.798;2022-09-30T03:50:51;101425.13;;;16.48;68.67
63399;BME280;49533;-34.520;150.798;2022-09-30T03:53:20;101418.84;;;16.48;68.71
63399;BME280;49533;-34.520;150.798;2022-09-30T03:55:50;101425.13;;;16.48;68.83
63399;BME280;49533;-34.520;150.798;2022-09-30T03:58:20;101432.91;;;16.46;68.84
63399;BME280;49533;-34.520;150.798;2022-09-30T04:00:50;101426.28;;;16.47;68.83
63399;BME280;49533;-34.520;150.798;2022-09-30T04:03:19;101439.69;;;16.49;68.72
63399;BME280;49533;-34.520;150.798;2022-09-30T04:05:47;101431.75;;;16.47;69.00
63399;BME280;49533;-34.520;150.798;2022-09-30T04:08:15;101428.53;;;16.45;68.96
63399;BME280;49533;-34.520;150.798;2022-09-30T04:10:43;101431.28;;;16.45;68.88
63399;BME280;49533;-34.520;150.798;2022-09-30T04:13:11;101423.84;;;16.46;69.08
63399;BME280;49533;-34.520;150.798;2022-09-30T04:15:38;101422.72;;;16.47;68.96
63399;BME280;49533;-34.520;150.798;2022-09-30T04:18:06;101428.22;;;16.47;69.10
63399;BME280;49533;-34.520;150.798;2022-09-30T04:20:33;101431.75;;;16.47;69.10
63399;BME280;49533;-34.520;150.798;2022-09-30T04:23:01;101405.78;;;16.45;69.05
63399;BME280;49533;-34.520;150.798;2022-09-30T04:25:28;101422.38;;;16.48;68.93
63399;BME280;49533;-34.520;150.798;2022-09-30T04:27:55;101422.88;;;16.50;68.78
63399;BME280;49533;-34.520;150.798;2022-09-30T04:30:23;101421.28;;;16.49;68.63
63399;BME280;49533;-34.520;150.798;2022-09-30T04:32:50;101428.03;;;16.43;68.86
63399;BME280;49533;-34.520;150.798;2022-09-30T04:35:17;101430.31;;;16.33;69.42
63399;BME280;49533;-34.520;150.798;2022-09-30T04:37:45;101420.16;;;16.33;69.72
63399;BME280;49533;-34.520;150.798;2022-09-30T04:40:14;101424.19;;;16.36;69.31
63399;BME280;49533;-34.520;150.798;2022-09-30T04:42:42;101431.78;;;16.39;69.61
63399;BME280;49533;-34.520;150.798;2022-09-30T04:45:11;101426.75;;;16.41;69.43
63399;BME280;49533;-34.520;150.798;2022-09-30T04:47:43;101435.16;;;16.44;69.38
63399;BME280;49533;-34.520;150.798;2022-09-30T04:50:11;101434.03;;;16.45;69.56
63399;BME280;49533;-34.520;150.798;2022-09-30T04:52:41;101442.72;;;16.47;69.73
63399;BME280;49533;-34.520;150.798;2022-09-30T04:55:10;101439.69;;;16.49;69.33
63399;BME280;49533;-34.520;150.798;2022-09-30T04:57:37;101438.84;;;16.48;69.32
63399;BME280;49533;-34.520;150.798;2022-09-30T05:00:05;101448.38;;;16.51;69.23
63399;BME280;49533;-34.520;150.798;2022-09-30T05:02:34;101435.00;;;16.49;69.58
63399;BME280;49533;-34.520;150.798;2022-09-30T05:05:02;101447.56;;;16.50;69.25
63399;BME280;49533;-34.520;150.798;2022-09-30T05:07:30;101444.03;;;16.50;68.95
63399;BME280;49533;-34.520;150.798;2022-09-30T05:09:57;101447.56;;;16.50;69.00
63399;BME280;49533;-34.520;150.798;2022-09-30T05:12:24;101448.22;;;16.47;69.06
63399;BME280;49533;-34.520;150.798;2022-09-30T05:14:51;101446.44;;;16.43;68.23
63399;BME280;49533;-34.520;150.798;2022-09-30T05:17:18;101446.78;;;16.33;68.70
63399;BME280;49533;-34.520;150.798;2022-09-30T05:19:45;101455.00;;;16.33;68.64
63399;BME280;49533;-34.520;150.798;2022-09-30T05:22:13;101441.63;;;16.31;68.68
63399;BME280;49533;-34.520;150.798;2022-09-30T05:24:40;101440.00;;;16.30;68.99
63399;BME280;49533;-34.520;150.798;2022-09-30T05:27:08;101432.44;;;16.18;69.29
63399;BME280;49533;-34.520;150.798;2022-09-30T05:29:35;101446.63;;;16.29;69.44
63399;BME280;49533;-34.520;150.798;2022-09-30T05:32:02;101453.88;;;16.34;69.16
63399;BME280;49533;-34.520;150.798;2022-09-30T05:34:29;101458.53;;;16.33;69.28
63399;BME280;49533;-34.520;150.798;2022-09-30T05:36:56;101456.31;;;16.26;68.95
63399;BME280;49533;-34.520;150.798;2022-09-30T05:39:23;101450.81;;;16.26;69.27
63399;BME280;49533;-34.520;150.798;2022-09-30T05:41:50;101464.19;;;16.28;70.13
63399;BME280;49533;-34.520;150.798;2022-09-30T05:44:18;101464.06;;;16.16;71.98
63399;BME280;49533;-34.520;150.798;2022-09-30T05:46:45;101470.31;;;15.99;72.63
63399;BME280;49533;-34.520;150.798;2022-09-30T05:49:12;101464.50;;;15.92;72.88
63399;BME280;49533;-34.520;150.798;2022-09-30T05:51:40;101459.66;;;15.80;73.98
63399;BME280;49533;-34.520;150.798;2022-09-30T05:54:08;101479.63;;;15.80;74.08
63399;BME280;49533;-34.520;150.798;2022-09-30T05:56:36;101475.59;;;15.78;74.30
63399;BME280;49533;-34.520;150.798;2022-09-30T05:59:04;101465.22;;;15.66;74.60
63399;BME280;49533;-34.520;150.798;2022-09-30T06:01:31;101459.72;;;15.57;74.73
63399;BME280;49533;-34.520;150.798;2022-09-30T06:03:59;101466.59;;;15.46;75.44
63399;BME280;49533;-34.520;150.798;2022-09-30T06:06:26;101471.56;;;15.44;75.81
63399;BME280;49533;-34.520;150.798;2022-09-30T06:08:55;101473.66;;;15.38;75.92
63399;BME280;49533;-34.520;150.798;2022-09-30T06:11:23;101479.13;;;15.38;75.63
63399;BME280;49533;-34.520;150.798;2022-09-30T06:13:50;101478.19;;;15.43;75.89
63399;BME280;49533;-34.520;150.798;2022-09-30T06:16:18;101482.81;;;15.34;75.88
63399;BME280;49533;-34.520;150.798;2022-09-30T06:18:45;101492.47;;;15.31;75.93
63399;BME280;49533;-34.520;150.798;2022-09-30T06:21:14;101481.47;;;15.22;76.20
63399;BME280;49533;-34.520;150.798;2022-09-30T06:23:42;101484.25;;;15.31;76.05
63399;BME280;49533;-34.520;150.798;2022-09-30T06:26:11;101486.31;;;15.26;76.08
63399;BME280;49533;-34.520;150.798;2022-09-30T06:28:40;101472.78;;;15.20;76.09
63399;BME280;49533;-34.520;150.798;2022-09-30T06:31:07;101475.00;;;15.18;76.39
63399;BME280;49533;-34.520;150.798;2022-09-30T06:33:34;101483.84;;;15.15;75.97
63399;BME280;49533;-34.520;150.798;2022-09-30T06:36:02;101483.56;;;15.17;76.40
63399;BME280;49533;-34.520;150.798;2022-09-30T06:38:31;101486.28;;;15.17;76.40
63399;BME280;49533;-34.520;150.798;2022-09-30T06:41:00;101495.97;;;15.23;76.94
63399;BME280;49533;-34.520;150.798;2022-09-30T06:43:27;101496.50;;;15.34;76.24
63399;BME280;49533;-34.520;150.798;2022-09-30T06:45:54;101499.47;;;15.46;75.52
63399;BME280;49533;-34.520;150.798;2022-09-30T06:48:21;101497.38;;;15.52;74.94
63399;BME280;49533;-34.520;150.798;2022-09-30T06:50:49;101494.84;;;15.55;74.89
63399;BME280;49533;-34.520;150.798;2022-09-30T06:53:19;101491.94;;;15.60;74.70
63399;BME280;49533;-34.520;150.798;2022-09-30T06:55:46;101490.31;;;15.59;74.40
63399;BME280;49533;-34.520;150.798;2022-09-30T06:58:15;101501.47;;;15.63;74.41
63399;BME280;49533;-34.520;150.798;2022-09-30T07:00:42;101508.25;;;15.65;74.38
63399;BME280;49533;-34.520;150.798;2022-09-30T07:03:21;101505.50;;;15.65;74.28
63399;BME280;49533;-34.520;150.798;2022-09-30T07:05:57;101505.50;;;15.65;74.04
63399;BME280;49533;-34.520;150.798;2022-09-30T07:08:27;101511.97;;;15.70;74.03
63399;BME280;49533;-34.520;150.798;2022-09-30T07:10:57;101504.88;;;15.69;73.97
63399;BME280;49533;-34.520;150.798;2022-09-30T07:13:25;101505.38;;;15.71;73.92
63399;BME280;49533;-34.520;150.798;2022-09-30T07:15:52;101494.44;;;15.71;74.04
63399;BME280;49533;-34.520;150.798;2022-09-30T07:18:23;101506.19;;;15.71;73.61
63399;BME280;49533;-34.520;150.798;2022-09-30T07:20:51;101509.44;;;15.73;73.92
63399;BME280;49533;-34.520;150.798;2022-09-30T07:23:19;101507.00;;;15.72;74.01
63399;BME280;49533;-34.520;150.798;2022-09-30T07:25:51;101511.38;;;15.73;73.72
63399;BME280;49533;-34.520;150.798;2022-09-30T07:28:19;101509.44;;;15.73;73.72
63399;BME280;49533;-34.520;150.798;2022-09-30T07:30:46;101510.22;;;15.74;73.89
63399;BME280;49533;-34.520;150.798;2022-09-30T07:33:14;101512.97;;;15.74;73.90
63399;BME280;49533;-34.520;150.798;2022-09-30T07:35:50;101507.50;;;15.74;73.75
63399;BME280;49533;-34.520;150.798;2022-09-30T07:38:19;101505.88;;;15.73;73.51
63399;BME280;49533;-34.520;150.798;2022-09-30T07:40:54;101517.66;;;15.73;73.88
63399;BME280;49533;-34.520;150.798;2022-09-30T07:43:25;101519.59;;;15.73;74.04
63399;BME280;49533;-34.520;150.798;2022-09-30T07:46:05;101520.38;;;15.73;73.80
63399;BME280;49533;-34.520;150.798;2022-09-30T07:48:33;101526.66;;;15.74;73.68
63399;BME280;49533;-34.520;150.798;2022-09-30T07:51:12;101523.78;;;15.70;73.95
63399;BME280;49533;-34.520;150.798;2022-09-30T07:53:41;101520.19;;;15.70;73.95
63399;BME280;49533;-34.520;150.798;2022-09-30T07:56:10;101527.81;;;15.73;73.83
63399;BME280;49533;-34.520;150.798;2022-09-30T07:58:38;101531.66;;;15.72;73.81
63399;BME280;49533;-34.520;150.798;2022-09-30T08:01:06;101534.72;;;15.70;73.87
63399;BME280;49533;-34.520;150.798;2022-09-30T08:03:35;101526.78;;;15.69;74.03
63399;BME280;49533;-34.520;150.798;2022-09-30T08:06:11;101516.47;;;15.65;74.02
63399;BME280;49533;-34.520;150.798;2022-09-30T08:08:38;101528.22;;;15.66;73.90
63399;BME280;49533;-34.520;150.798;2022-09-30T08:11:06;101530.47;;;15.64;73.85
63399;BME280;49533;-34.520;150.798;2022-09-30T08:13:33;101529.34;;;15.65;73.81
63399;BME280;49533;-34.520;150.798;2022-09-30T08:16:01;101532.91;;;15.65;73.91
63399;BME280;49533;-34.520;150.798;2022-09-30T08:18:28;101531.25;;;15.64;73.92
63399;BME280;49533;-34.520;150.798;2022-09-30T08:20:56;101535.13;;;15.63;73.55
63399;BME280;49533;-34.520;150.798;2022-09-30T08:23:23;101544.16;;;15.64;73.52
63399;BME280;49533;-34.520;150.798;2022-09-30T08:25:50;101543.34;;;15.63;73.67
63399;BME280;49533;-34.520;150.798;2022-09-30T08:28:17;101546.91;;;15.64;73.53
63399;BME280;49533;-34.520;150.798;2022-09-30T08:30:44;101544.16;;;15.64;73.54
63399;BME280;49533;-34.520;150.798;2022-09-30T08:33:12;101541.91;;;15.57;73.43
63399;BME280;49533;-34.520;150.798;2022-09-30T08:35:39;101541.25;;;15.60;73.31
63399;BME280;49533;-34.520;150.798;2022-09-30T08:38:06;101551.88;;;15.62;73.40
63399;BME280;49533;-34.520;150.798;2022-09-30T08:40:43;101542.38;;;15.59;73.49
63399;BME280;49533;-34.520;150.798;2022-09-30T08:43:30;101548.34;;;15.61;73.55
63399;BME280;49533;-34.520;150.798;2022-09-30T08:46:16;101553.00;;;15.61;73.49
63399;BME280;49533;-34.520;150.798;2022-09-30T08:49:03;101560.44;;;15.60;73.52
63399;BME280;49533;-34.520;150.798;2022-09-30T08:51:41;101542.38;;;15.59;73.61
63399;BME280;49533;-34.520;150.798;2022-09-30T08:54:14;101544.13;;;15.55;73.62
63399;BME280;49533;-34.520;150.798;2022-09-30T08:56:44;101545.75;;;15.56;73.60
63399;BME280;49533;-34.520;150.798;2022-09-30T08:59:28;101537.03;;;15.54;73.54
63399;BME280;49533;-34.520;150.798;2022-09-30T09:02:14;101548.53;;;15.34;73.92
63399;BME280;49533;-34.520;150.798;2022-09-30T09:04:42;101548.25;;;15.44;73.55
63399;BME280;49533;-34.520;150.798;2022-09-30T09:12:59;101557.84;;;15.64;74.25
63399;BME280;49533;-34.520;150.798;2022-09-30T09:15:38;101552.06;;;15.65;74.63
63399;BME280;49533;-34.520;150.798;2022-09-30T09:18:28;101550.34;;;15.70;75.12
63399;BME280;49533;-34.520;150.798;2022-09-30T09:21:14;101564.03;;;15.70;75.29
63399;BME280;49533;-34.520;150.798;2022-09-30T09:23:45;101568.09;;;15.72;75.05
63399;BME280;49533;-34.520;150.798;2022-09-30T09:26:14;101575.97;;;15.74;75.42
63399;BME280;49533;-34.520;150.798;2022-09-30T09:29:07;101563.72;;;15.71;75.70
63399;BME280;49533;-34.520;150.798;2022-09-30T09:31:35;101571.63;;;15.73;75.81
63399;BME280;49533;-34.520;150.798;2022-09-30T09:34:10;101570.50;;;15.74;75.84
63399;BME280;49533;-34.520;150.798;2022-09-30T09:36:48;101571.63;;;15.73;76.07
63399;BME280;49533;-34.520;150.798;2022-09-30T09:39:44;101567.59;;;15.70;76.21
63399;BME280;49533;-34.520;150.798;2022-09-30T09:42:26;101570.84;;;15.72;76.15
63399;BME280;49533;-34.520;150.798;2022-09-30T09:45:13;101580.97;;;15.72;76.35
63399;BME280;49533;-34.520;150.798;2022-09-30T09:47:50;101564.03;;;15.70;76.12
63399;BME280;49533;-34.520;150.798;2022-09-30T09:50:26;101578.84;;;15.69;76.00
63399;BME280;49533;-34.520;150.798;2022-09-30T09:53:12;101567.59;;;15.70;75.92
63399;BME280;49533;-34.520;150.798;2022-09-30T09:55:45;101567.88;;;15.69;75.90
63399;BME280;49533;-34.520;150.798;2022-09-30T09:58:14;101573.25;;;15.74;76.13
63399;BME280;49533;-34.520;150.798;2022-09-30T10:00:43;101571.94;;;15.71;76.18
63399;BME280;49533;-34.520;150.798;2022-09-30T10:03:30;101572.13;;;15.75;76.25
63399;BME280;49533;-34.520;150.798;2022-09-30T10:06:06;101574.88;;;15.75;76.33
63399;BME280;49533;-34.520;150.798;2022-09-30T10:08:37;101577.63;;;15.75;76.29
63399;BME280;49533;-34.520;150.798;2022-09-30T10:11:08;101587.44;;;15.76;76.23
63399;BME280;49533;-34.520;150.798;2022-09-30T10:13:44;101590.19;;;15.76;76.19
63399;BME280;49533;-34.520;150.798;2022-09-30T10:16:25;101592.13;;;15.75;76.21
63399;BME280;49533;-34.520;150.798;2022-09-30T10:18:54;101588.88;;;15.73;76.23
63399;BME280;49533;-34.520;150.798;2022-09-30T10:21:23;101583.41;;;15.73;76.05
63399;BME280;49533;-34.520;150.798;2022-09-30T10:23:52;101579.53;;;15.74;76.12
63399;BME280;49533;-34.520;150.798;2022-09-30T10:26:23;101575.19;;;15.73;75.99
63399;BME280;49533;-34.520;150.798;2022-09-30T10:28:53;101579.88;;;15.73;76.02
63399;BME280;49533;-34.520;150.798;2022-09-30T10:31:27;101579.53;;;15.74;75.95
63399;BME280;49533;-34.520;150.798;2022-09-30T10:34:10;101581.81;;;15.72;75.82
63399;BME280;49533;-34.520;150.798;2022-09-30T10:36:42;101579.88;;;15.73;76.13
63399;BME280;49533;-34.520;150.798;2022-09-30T10:39:31;101570.84;;;15.72;75.81
63399;BME280;49533;-34.520;150.798;2022-09-30T10:42:07;101574.38;;;15.73;75.84
63399;BME280;49533;-34.520;150.798;2022-09-30T10:44:45;101570.00;;;15.72;75.90
63399;BME280;49533;-34.520;150.798;2022-09-30T10:47:16;101567.88;;;15.69;75.92
63399;BME280;49533;-34.520;150.798;2022-09-30T10:49:58;101580.66;;;15.73;75.92
63399;BME280;49533;-34.520;150.798;2022-09-30T10:52:33;101575.50;;;15.72;75.71
63399;BME280;49533;-34.520;150.798;2022-09-30T10:55:07;101575.28;;;15.68;75.79
63399;BME280;49533;-34.520;150.798;2022-09-30T10:57:36;101569.94;;;15.63;75.77
63399;BME280;49533;-34.520;150.798;2022-09-30T11:00:12;101570.63;;;15.69;75.63
63399;BME280;49533;-34.520;150.798;2022-09-30T11:02:55;101576.09;;;15.69;75.73
63399;BME280;49533;-34.520;150.798;2022-09-30T11:05:33;101579.97;;;15.68;75.76
63399;BME280;49533;-34.520;150.798;2022-09-30T11:11:04;101565.56;;;15.62;75.66
63399;BME280;49533;-34.520;150.798;2022-09-30T11:13:41;101581.22;;;15.61;75.74
63399;BME280;49533;-34.520;150.798;2022-09-30T11:16:56;101548.19;;;15.58;75.78
63399;BME280;49533;-34.520;150.798;2022-09-30T11:19:20;101553.47;;;15.54;75.46
63399;BME280;49533;-34.520;150.798;2022-09-30T11:21:58;101560.38;;;15.52;75.43
63399;BME280;49533;-34.520;150.798;2022-09-30T11:24:37;101564.41;;;15.54;75.42
63399;BME280;49533;-34.520;150.798;2022-09-30T11:27:25;101570.88;;;15.58;75.41
63399;BME280;49533;-34.520;150.798;2022-09-30T11:30:07;101567.34;;;15.58;75.15
63399;BME280;49533;-34.520;150.798;2022-09-30T11:33:02;101557.84;;;15.55;75.29
63399;BME280;49533;-34.520;150.798;2022-09-30T11:35:49;101543.78;;;15.48;75.31
63399;BME280;49533;-34.520;150.798;2022-09-30T11:38:43;101548.63;;;15.51;75.21
63399;BME280;49533;-34.520;150.798;2022-09-30T11:44:28;101552.50;;;15.50;75.19
63399;BME280;49533;-34.520;150.798;2022-09-30T11:47:13;101542.66;;;15.49;75.05
63399;BME280;49533;-34.520;150.798;2022-09-30T11:50:02;101542.19;;;15.47;74.95
63399;BME280;49533;-34.520;150.798;2022-09-30T11:56:02;101543.78;;;15.48;74.92
63399;BME280;49533;-34.520;150.798;2022-09-30T11:58:38;101529.59;;;15.46;74.86
63399;BME280;49533;-34.520;150.798;2022-09-30T12:01:19;101541.34;;;15.47;74.67
63399;BME280;49533;-34.520;150.798;2022-09-30T12:04:03;101534.09;;;15.42;74.71
63399;BME280;49533;-34.520;150.798;2022-09-30T12:06:36;101540.88;;;15.44;74.48
63399;BME280;49533;-34.520;150.798;2022-09-30T12:09:22;101531.34;;;15.42;74.66
63399;BME280;49533;-34.520;150.798;2022-09-30T12:11:57;101538.44;;;15.43;74.92
63399;BME280;49533;-34.520;150.798;2022-09-30T12:14:35;101536.00;;;15.41;74.71
63399;BME280;49533;-34.520;150.798;2022-09-30T12:17:17;101536.34;;;15.40;74.44
63399;BME280;49533;-34.520;150.798;2022-09-30T12:19:48;101535.19;;;15.41;74.61
63399;BME280;49533;-34.520;150.798;2022-09-30T12:22:28;101528.91;;;15.40;74.60
63399;BME280;49533;-34.520;150.798;2022-09-30T12:24:56;101539.06;;;15.40;74.71
63399;BME280;49533;-34.520;150.798;2022-09-30T12:27:33;101531.16;;;15.38;74.85
63399;BME280;49533;-34.520;150.798;2022-09-30T12:30:13;101527.63;;;15.38;74.64
63399;BME280;49533;-34.520;150.798;2022-09-30T12:33:03;101521.66;;;15.36;74.55
63399;BME280;49533;-34.520;150.798;2022-09-30T12:35:55;101521.97;;;15.34;74.58
63399;BME280;49533;-34.520;150.798;2022-09-30T12:38:57;101524.22;;;15.32;74.69
63399;BME280;49533;-34.520;150.798;2022-09-30T12:41:48;101516.63;;;15.29;74.60
63399;BME280;49533;-34.520;150.798;2022-09-30T12:44:49;101505.34;;;15.31;74.50
63399;BME280;49533;-34.520;150.798;2022-09-30T12:47:35;101529.34;;;15.34;74.47
63399;BME280;49533;-34.520;150.798;2022-09-30T12:50:15;101526.16;;;15.32;74.70
63399;BME280;49533;-34.520;150.798;2022-09-30T12:52:44;101541.09;;;15.26;74.50
63399;BME280;49533;-34.520;150.798;2022-09-30T12:55:27;101524.66;;;15.26;74.42
63399;BME280;49533;-34.520;150.798;2022-09-30T12:57:56;101532.56;;;15.27;74.49
63399;BME280;49533;-34.520;150.798;2022-09-30T13:00:28;101526.28;;;15.27;74.31
63399;BME280;49533;-34.520;150.798;2022-09-30T13:03:04;101527.38;;;15.26;74.53
63399;BME280;49533;-34.520;150.798;2022-09-30T13:05:54;101522.25;;;15.24;74.59
63399;BME280;49533;-34.520;150.798;2022-09-30T13:08:32;101535.09;;;15.23;74.50
63399;BME280;49533;-34.520;150.798;2022-09-30T13:11:05;101545.25;;;15.23;74.33
63399;BME280;49533;-34.520;150.798;2022-09-30T13:13:33;101549.44;;;15.20;74.40
63399;BME280;49533;-34.520;150.798;2022-09-30T13:16:02;101550.22;;;15.21;74.22